createdAt,value
2018-04-01T00:00:30.084Z,7.40
2018-04-01T00:02:57.716Z,7.40
2018-04-01T00:05:25.360Z,7.30
2018-04-01T00:07:53.093Z,7.30
2018-04-01T00:10:20.709Z,7.20
2018-04-01T00:12:48.438Z,7.20
2018-04-01T00:15:16.125Z,7.10
2018-04-01T00:17:43.723Z,7.10
2018-04-01T00:20:11.359Z,7.10
2018-04-01T00:22:39.001Z,7.10
2018-04-01T00:25:06.608Z,7.10
2018-04-01T00:27:34.256Z,7.00
2018-04-01T00:30:01.872Z,7.00
2018-04-01T00:32:30.284Z,6.90
2018-04-01T00:34:57.927Z,6.90
2018-04-01T00:37:26.343Z,6.70
2018-04-01T00:39:53.965Z,6.70
2018-04-01T00:42:22.383Z,6.60
2018-04-01T00:44:50.020Z,6.50
2018-04-01T00:47:18.756Z,6.50
2018-04-01T00:49:46.434Z,6.50
2018-04-01T00:52:14.064Z,6.60
2018-04-01T00:54:41.691Z,6.70
2018-04-01T00:57:09.328Z,6.80
2018-04-01T00:59:37.075Z,6.90
2018-04-01T01:02:04.707Z,6.90
2018-04-01T01:04:32.427Z,7.00
2018-04-01T01:07:00.820Z,7.10
2018-04-01T01:09:28.445Z,7.10
2018-04-01T01:11:56.082Z,7.10
2018-04-01T01:14:23.702Z,7.20
2018-04-01T01:16:51.327Z,7.20
2018-04-01T01:19:18.956Z,7.20
2018-04-01T01:21:46.579Z,7.20
2018-04-01T01:24:14.214Z,7.10
2018-04-01T01:26:42.009Z,7.10
2018-04-01T01:29:09.637Z,7.00
2018-04-01T01:31:37.262Z,6.90
2018-04-01T01:34:04.909Z,6.90
2018-04-01T01:36:32.533Z,6.80
2018-04-01T01:39:00.412Z,6.80
2018-04-01T01:41:28.917Z,6.70
2018-04-01T01:43:56.557Z,6.70
2018-04-01T01:46:24.978Z,6.70
2018-04-01T01:48:52.627Z,6.70
2018-04-01T01:51:20.234Z,6.70
2018-04-01T01:53:50.004Z,6.70
2018-04-01T01:56:17.697Z,6.70
2018-04-01T01:58:46.997Z,6.70
2018-04-01T02:01:14.636Z,6.70
2018-04-01T02:03:42.285Z,6.70
2018-04-01T02:06:09.928Z,6.80
2018-04-01T02:08:37.579Z,6.80
2018-04-01T02:11:05.970Z,6.80
2018-04-01T02:13:33.624Z,6.80
2018-04-01T02:16:01.257Z,6.80
2018-04-01T02:18:28.931Z,6.80
2018-04-01T02:20:57.320Z,6.80
2018-04-01T02:23:25.712Z,6.70
2018-04-01T02:25:53.348Z,6.70
2018-04-01T02:28:21.745Z,6.70
2018-04-01T02:30:49.388Z,6.70
2018-04-01T02:33:17.835Z,6.70
2018-04-01T02:35:45.478Z,6.60
2018-04-01T02:38:13.080Z,6.60
2018-04-01T02:40:40.732Z,6.60
2018-04-01T02:43:08.372Z,6.60
2018-04-01T02:45:36.263Z,6.60
2018-04-01T02:48:03.901Z,6.60
2018-04-01T02:50:31.528Z,6.60
2018-04-01T02:52:59.141Z,6.50
2018-04-01T02:55:27.413Z,6.60
2018-04-01T02:57:55.176Z,6.60
2018-04-01T03:00:22.805Z,6.60
2018-04-01T03:02:50.509Z,6.60
2018-04-01T03:05:18.213Z,6.60
2018-04-01T03:07:45.829Z,6.60
2018-04-01T03:10:13.600Z,6.60
2018-04-01T03:12:41.230Z,6.60
2018-04-01T03:15:08.860Z,6.60
2018-04-01T03:17:36.494Z,6.60
2018-04-01T03:20:05.099Z,6.60
2018-04-01T03:22:32.802Z,6.60
2018-04-01T03:25:00.464Z,6.60
2018-04-01T03:27:28.087Z,6.60
2018-04-01T03:29:55.712Z,6.60
2018-04-01T03:32:23.367Z,6.70
2018-04-01T03:34:51.006Z,6.70
2018-04-01T03:37:18.649Z,6.70
2018-04-01T03:39:46.301Z,6.70
2018-04-01T03:42:13.915Z,6.70
2018-04-01T03:44:41.552Z,6.70
2018-04-01T03:47:09.191Z,6.60
2018-04-01T03:49:36.812Z,6.60
2018-04-01T03:52:04.430Z,6.70
2018-04-01T03:54:32.070Z,6.70
2018-04-01T03:56:59.699Z,6.70
2018-04-01T03:59:28.074Z,6.70
2018-04-01T04:01:56.504Z,6.70
2018-04-01T04:04:24.123Z,6.70
2018-04-01T04:06:52.519Z,6.70
2018-04-01T04:09:20.161Z,6.70
2018-04-01T04:11:48.548Z,6.60
2018-04-01T04:14:16.940Z,6.50
2018-04-01T04:16:44.592Z,6.50
2018-04-01T04:19:12.224Z,6.40
2018-04-01T04:21:39.969Z,6.30
2018-04-01T04:24:07.665Z,6.30
2018-04-01T04:26:36.062Z,6.20
2018-04-01T04:29:03.692Z,6.20
2018-04-01T04:31:31.329Z,6.20
2018-04-01T04:33:59.170Z,6.20
2018-04-01T04:36:26.833Z,6.20
2018-04-01T04:38:55.207Z,6.20
2018-04-01T04:41:22.842Z,6.10
2018-04-01T04:43:51.307Z,6.20
2018-04-01T04:46:19.072Z,6.20
2018-04-01T04:48:46.717Z,6.20
2018-04-01T04:51:14.358Z,6.20
2018-04-01T04:53:42.826Z,6.20
2018-04-01T04:56:10.452Z,6.10
2018-04-01T04:58:38.850Z,6.10
2018-04-01T05:01:06.494Z,6.10
2018-04-01T05:03:34.889Z,6.10
2018-04-01T05:06:02.623Z,6.10
2018-04-01T05:08:30.244Z,6.10
2018-04-01T05:10:57.873Z,6.10
2018-04-01T05:13:25.719Z,6.10
2018-04-01T05:15:54.123Z,6.10
2018-04-01T05:18:21.970Z,6.10
2018-04-01T05:20:49.595Z,6.10
2018-04-01T05:23:17.243Z,6.10
2018-04-01T05:25:44.886Z,6.10
2018-04-01T05:28:12.567Z,6.10
2018-04-01T05:30:40.669Z,6.10
2018-04-01T05:33:08.294Z,6.10
2018-04-01T05:35:35.959Z,6.10
2018-04-01T05:38:03.607Z,6.10
2018-04-01T05:40:31.230Z,6.10
2018-04-01T05:42:59.635Z,6.10
2018-04-01T05:45:28.124Z,6.10
2018-04-01T05:47:55.751Z,6.10
2018-04-01T05:50:24.159Z,6.20
2018-04-01T05:52:51.805Z,6.20
2018-04-01T05:55:19.437Z,6.30
2018-04-01T05:57:47.146Z,6.30
2018-04-01T06:00:14.800Z,6.30
2018-04-01T06:02:42.424Z,6.30
2018-04-01T06:05:10.223Z,6.30
2018-04-01T06:07:37.864Z,6.30
2018-04-01T06:10:06.266Z,6.40
2018-04-01T06:12:33.912Z,6.40
2018-04-01T06:15:01.781Z,6.40
2018-04-01T06:17:30.184Z,6.50
2018-04-01T06:19:57.814Z,6.50
2018-04-01T06:22:26.208Z,6.50
2018-04-01T06:24:53.919Z,6.50
2018-04-01T06:27:21.758Z,6.50
2018-04-01T06:29:49.517Z,6.50
2018-04-01T06:32:17.142Z,6.60
2018-04-01T06:34:45.536Z,6.60
2018-04-01T06:37:13.205Z,6.60
2018-04-01T06:39:40.834Z,6.70
2018-04-01T06:42:08.692Z,6.70
2018-04-01T06:44:36.381Z,6.80
2018-04-01T06:47:04.147Z,6.80
2018-04-01T06:49:31.785Z,7.00
2018-04-01T06:51:59.438Z,7.00
2018-04-01T06:54:27.059Z,7.00
2018-04-01T06:56:54.687Z,7.00
2018-04-01T06:59:22.454Z,6.90
2018-04-01T07:01:50.066Z,6.80
2018-04-01T07:04:17.862Z,6.70
2018-04-01T07:06:45.755Z,6.60
2018-04-01T07:09:14.170Z,6.60
2018-04-01T07:11:41.799Z,6.70
2018-04-01T07:14:09.479Z,6.80
2018-04-01T07:16:37.127Z,7.00
2018-04-01T07:19:04.927Z,7.20
2018-04-01T07:21:32.566Z,7.20
2018-04-01T07:24:00.311Z,7.20
2018-04-01T07:26:27.926Z,7.30
2018-04-01T07:28:55.593Z,7.70
2018-04-01T07:31:23.232Z,7.90
2018-04-01T07:33:50.861Z,7.90
2018-04-01T07:36:19.333Z,7.80
2018-04-01T07:38:47.699Z,7.80
2018-04-01T07:41:16.090Z,7.80
2018-04-01T07:43:43.715Z,7.80
2018-04-01T07:46:12.851Z,7.90
2018-04-01T07:48:40.578Z,7.90
2018-04-01T07:51:08.270Z,8.00
2018-04-01T07:53:35.882Z,7.90
2018-04-01T07:56:03.525Z,7.90
2018-04-01T07:58:31.180Z,7.80
2018-04-01T08:00:58.870Z,7.70
2018-04-01T08:03:26.624Z,7.60
2018-04-01T08:05:54.286Z,7.60
2018-04-01T08:08:21.906Z,7.60
2018-04-01T08:10:49.548Z,7.50
2018-04-01T08:13:17.951Z,7.50
2018-04-01T08:15:45.580Z,7.50
2018-04-01T08:18:13.203Z,7.40
2018-04-01T08:20:40.840Z,7.30
2018-04-01T08:23:08.646Z,7.30
2018-04-01T08:25:36.271Z,7.40
2018-04-01T08:28:03.920Z,7.50
2018-04-01T08:30:31.564Z,7.60
2018-04-01T08:32:59.809Z,7.70
2018-04-01T08:35:27.582Z,7.90
2018-04-01T08:37:55.229Z,8.00
2018-04-01T08:40:22.888Z,8.10
2018-04-01T08:42:50.728Z,8.10
2018-04-01T08:45:18.339Z,8.00
2018-04-01T08:47:47.472Z,7.80
2018-04-01T08:50:15.117Z,7.80
2018-04-01T08:52:44.274Z,7.90
2018-04-01T08:55:11.925Z,7.90
2018-04-01T08:57:39.563Z,7.90
2018-04-01T09:00:07.307Z,7.90
2018-04-01T09:02:35.807Z,7.90
2018-04-01T09:05:03.460Z,7.90
2018-04-01T09:07:31.084Z,7.80
2018-04-01T09:09:58.712Z,7.90
2018-04-01T09:12:26.366Z,8.00
2018-04-01T09:14:53.980Z,8.40
2018-04-01T09:17:22.365Z,8.70
2018-04-01T09:19:50.765Z,8.60
2018-04-01T09:22:18.415Z,8.60
2018-04-01T09:24:46.797Z,8.80
2018-04-01T09:27:14.428Z,8.80
2018-04-01T09:29:42.837Z,8.80
2018-04-01T09:32:10.466Z,8.70
2018-04-01T09:34:38.126Z,8.80
2018-04-01T09:37:05.843Z,8.90
2018-04-01T09:39:33.510Z,8.70
2018-04-01T09:42:01.156Z,8.60
2018-04-01T09:44:29.001Z,8.50
2018-04-01T09:46:57.409Z,8.30
2018-04-01T09:49:25.059Z,8.20
2018-04-01T09:51:52.685Z,8.20
2018-04-01T09:54:20.332Z,8.10
2018-04-01T09:56:48.002Z,8.20
2018-04-01T09:59:15.819Z,8.20
2018-04-01T10:01:44.888Z,8.30
2018-04-01T10:04:13.171Z,8.50
2018-04-01T10:06:41.347Z,8.60
2018-04-01T10:09:10.298Z,8.90
2018-04-01T10:11:39.957Z,8.90
2018-04-01T10:14:08.070Z,8.90
2018-04-01T10:16:36.424Z,9.00
2018-04-01T10:19:04.604Z,9.30
2018-04-01T10:21:32.739Z,9.40
2018-04-01T10:24:01.594Z,9.50
2018-04-01T10:26:30.332Z,9.40
2018-04-01T10:28:58.448Z,9.50
2018-04-01T10:31:26.568Z,9.50
2018-04-01T10:33:55.465Z,9.40
2018-04-01T10:36:23.598Z,9.40
2018-04-01T10:38:51.880Z,9.30
2018-04-01T10:41:19.990Z,9.30
2018-04-01T10:43:48.330Z,9.30
2018-04-01T10:46:16.615Z,9.50
2018-04-01T10:48:45.022Z,9.60
2018-04-01T10:51:13.158Z,9.80
2018-04-01T10:53:41.307Z,9.80
2018-04-01T10:56:08.955Z,9.60
2018-04-01T10:58:36.581Z,9.50
2018-04-01T11:01:04.225Z,9.50
2018-04-01T11:03:32.731Z,9.50
2018-04-01T11:06:00.361Z,9.50
2018-04-01T11:08:28.022Z,9.70
2018-04-01T11:10:55.653Z,9.80
2018-04-01T11:13:24.165Z,9.70
2018-04-01T11:15:51.794Z,9.60
2018-04-01T11:18:19.552Z,9.40
2018-04-01T11:20:47.205Z,9.60
2018-04-01T11:23:14.828Z,9.90
2018-04-01T11:25:43.229Z,10.10
2018-04-01T11:28:10.882Z,10.10
2018-04-01T11:30:39.286Z,9.70
2018-04-01T11:33:07.851Z,9.50
2018-04-01T11:35:35.472Z,9.40
2018-04-01T11:38:03.101Z,9.10
2018-04-01T11:40:30.785Z,8.90
2018-04-01T11:42:58.414Z,8.60
2018-04-01T11:45:26.075Z,8.30
2018-04-01T11:47:53.807Z,8.10
2018-04-01T11:50:22.190Z,7.90
2018-04-01T11:52:50.633Z,7.90
2018-04-01T11:55:18.427Z,7.90
2018-04-01T11:57:46.056Z,7.90
2018-04-01T12:00:13.698Z,7.90
2018-04-01T12:02:41.366Z,8.00
2018-04-01T12:05:08.989Z,8.30
2018-04-01T12:07:36.639Z,8.50
2018-04-01T12:10:04.267Z,8.70
2018-04-01T12:12:31.939Z,8.90
2018-04-01T12:14:59.569Z,8.80
2018-04-01T12:17:31.908Z,8.70
2018-04-01T12:19:59.685Z,8.80
2018-04-01T12:22:32.524Z,8.70
2018-04-01T12:25:00.215Z,8.90
2018-04-01T12:27:27.839Z,9.10
2018-04-01T12:29:55.595Z,9.10
2018-04-01T12:32:23.243Z,9.10
2018-04-01T12:34:51.247Z,8.80
2018-04-01T12:37:18.867Z,8.50
2018-04-01T12:39:46.757Z,8.30
2018-04-01T12:42:15.242Z,8.10
2018-04-01T12:44:43.210Z,8.10
2018-04-01T12:47:12.669Z,7.80
2018-04-01T12:49:40.479Z,7.80
2018-04-01T12:52:11.270Z,7.70
2018-04-01T12:54:39.571Z,7.70
2018-04-01T12:57:07.262Z,7.70
2018-04-01T12:59:36.283Z,7.80
2018-04-01T13:02:03.988Z,7.80
2018-04-01T13:04:31.635Z,7.90
2018-04-01T13:06:59.279Z,7.90
2018-04-01T13:09:26.908Z,7.90
2018-04-01T13:11:54.545Z,7.90
2018-04-01T13:14:22.185Z,8.00
2018-04-01T13:16:49.820Z,8.00
2018-04-01T13:19:18.224Z,8.00
2018-04-01T13:21:45.853Z,8.10
2018-04-01T13:24:13.512Z,8.30
2018-04-01T13:26:41.137Z,8.70
2018-04-01T13:29:08.804Z,9.20
2018-04-01T13:31:36.442Z,9.60
2018-04-01T13:34:04.599Z,9.50
2018-04-01T13:36:32.958Z,9.70
2018-04-01T13:39:00.587Z,10.10
2018-04-01T13:41:28.240Z,10.00
2018-04-01T13:43:56.018Z,10.00
2018-04-01T13:46:23.732Z,10.00
2018-04-01T13:48:51.389Z,10.20
2018-04-01T13:51:19.032Z,10.30
2018-04-01T13:53:48.275Z,10.50
2018-04-01T13:56:15.917Z,10.50
2018-04-01T13:58:43.700Z,10.50
2018-04-01T14:01:11.345Z,10.60
2018-04-01T14:03:38.977Z,10.60
2018-04-01T14:06:06.621Z,10.60
2018-04-01T14:08:35.037Z,10.00
2018-04-01T14:11:02.690Z,9.90
2018-04-01T14:13:30.368Z,9.60
2018-04-01T14:15:58.005Z,9.50
2018-04-01T14:18:25.627Z,9.60
2018-04-01T14:20:53.650Z,9.70
2018-04-01T14:23:21.596Z,9.90
2018-04-01T14:25:49.969Z,10.10
2018-04-01T14:28:18.391Z,10.20
2018-04-01T14:30:45.998Z,10.20
2018-04-01T14:33:14.489Z,10.00
2018-04-01T14:35:42.086Z,10.00
2018-04-01T14:38:10.504Z,9.90
2018-04-01T14:40:38.140Z,9.50
2018-04-01T14:43:05.764Z,9.20
2018-04-01T14:45:33.391Z,9.20
2018-04-01T14:48:01.168Z,9.20
2018-04-01T14:50:28.806Z,9.10
2018-04-01T14:52:56.431Z,9.10
2018-04-01T14:55:24.055Z,9.10
2018-04-01T14:57:52.456Z,9.30
2018-04-01T15:00:20.094Z,9.30
2018-04-01T15:02:48.473Z,9.60
2018-04-01T15:05:16.913Z,9.60
2018-04-01T15:07:44.534Z,9.60
2018-04-01T15:10:12.161Z,9.40
2018-04-01T15:12:39.951Z,9.40
2018-04-01T15:15:08.359Z,9.40
2018-04-01T15:17:35.995Z,9.40
2018-04-01T15:20:04.661Z,9.50
2018-04-01T15:22:32.426Z,9.40
2018-04-01T15:25:00.135Z,9.30
2018-04-01T15:27:27.847Z,9.30
2018-04-01T15:29:55.692Z,9.20
2018-04-01T15:32:24.108Z,9.30
2018-04-01T15:34:53.111Z,9.50
2018-04-01T15:37:20.794Z,9.50
2018-04-01T15:39:48.459Z,9.60
2018-04-01T15:42:16.932Z,9.60
2018-04-01T15:44:44.769Z,9.60
2018-04-01T15:47:12.307Z,9.80
2018-04-01T15:49:39.958Z,10.20
2018-04-01T15:52:07.678Z,10.10
2018-04-01T15:54:35.247Z,10.00
2018-04-01T15:57:03.508Z,10.00
2018-04-01T15:59:32.770Z,10.00
2018-04-01T16:02:00.839Z,10.20
2018-04-01T16:04:28.462Z,10.30
2018-04-01T16:06:56.095Z,10.20
2018-04-01T16:09:24.243Z,10.00
2018-04-01T16:11:52.059Z,10.00
2018-04-01T16:14:19.705Z,10.10
2018-04-01T16:16:48.607Z,10.70
2018-04-01T16:19:16.336Z,10.70
2018-04-01T16:21:44.075Z,10.70
2018-04-01T16:24:11.827Z,10.60
2018-04-01T16:26:39.826Z,10.60
2018-04-01T16:29:07.631Z,10.60
2018-04-01T16:31:36.395Z,10.70
2018-04-01T16:34:04.897Z,10.60
2018-04-01T16:36:32.536Z,10.60
2018-04-01T16:39:00.960Z,10.40
2018-04-01T16:41:28.597Z,10.30
2018-04-01T16:43:56.244Z,10.30
2018-04-01T16:46:23.888Z,10.00
2018-04-01T16:48:51.583Z,9.80
2018-04-01T16:51:19.280Z,9.60
2018-04-01T16:53:46.911Z,9.60
2018-04-01T16:56:14.565Z,9.70
2018-04-01T16:58:42.166Z,9.70
2018-04-01T17:01:09.791Z,9.70
2018-04-01T17:03:37.438Z,9.70
2018-04-01T17:06:05.824Z,9.60
2018-04-01T17:08:33.454Z,9.50
2018-04-01T17:11:01.097Z,9.40
2018-04-01T17:13:28.723Z,9.20
2018-04-01T17:15:56.923Z,9.10
2018-04-01T17:18:24.933Z,8.90
2018-04-01T17:20:53.325Z,8.80
2018-04-01T17:23:21.709Z,8.80
2018-04-01T17:25:50.298Z,8.70
2018-04-01T17:28:18.656Z,8.70
2018-04-01T17:30:47.051Z,8.60
2018-04-01T17:33:14.712Z,8.50
2018-04-01T17:35:43.884Z,8.40
2018-04-01T17:38:11.714Z,8.40
2018-04-01T17:40:40.327Z,8.30
2018-04-01T17:43:09.243Z,8.30
2018-04-01T17:45:37.636Z,8.20
2018-04-01T17:48:05.704Z,8.20
2018-04-01T17:50:33.439Z,8.20
2018-04-01T17:53:01.212Z,8.10
2018-04-01T17:55:28.869Z,8.00
2018-04-01T17:57:57.272Z,7.80
2018-04-01T18:00:24.907Z,7.70
2018-04-01T18:02:53.419Z,7.50
2018-04-01T18:05:21.242Z,7.50
2018-04-01T18:07:48.876Z,7.40
2018-04-01T18:10:16.519Z,7.40
2018-04-01T18:12:44.159Z,7.30
2018-04-01T18:15:11.791Z,7.30
2018-04-01T18:17:40.193Z,7.20
2018-04-01T18:20:08.013Z,7.20
2018-04-01T18:22:35.649Z,7.10
2018-04-01T18:25:03.368Z,7.00
2018-04-01T18:27:31.010Z,7.00
2018-04-01T18:29:59.399Z,6.90
2018-04-01T18:32:27.188Z,6.80
2018-04-01T18:34:54.827Z,6.90
2018-04-01T18:37:23.316Z,6.70
2018-04-01T18:39:52.250Z,6.70
2018-04-01T18:42:19.929Z,6.60
2018-04-01T18:44:47.575Z,6.60
2018-04-01T18:47:15.223Z,6.50
2018-04-01T18:49:42.861Z,6.40
2018-04-01T18:52:11.250Z,6.40
2018-04-01T18:54:38.889Z,6.40
2018-04-01T18:57:07.292Z,6.30
2018-04-01T18:59:34.936Z,6.30
2018-04-01T19:02:03.370Z,6.40
2018-04-01T19:04:31.005Z,6.40
2018-04-01T19:06:58.734Z,6.50
2018-04-01T19:09:27.147Z,6.60
2018-04-01T19:11:54.868Z,6.50
2018-04-01T19:14:23.326Z,6.60
2018-04-01T19:17:13.993Z,6.60
2018-04-01T19:19:42.144Z,6.70
2018-04-01T19:22:11.114Z,6.80
2018-04-01T19:24:39.388Z,6.80
2018-04-01T19:27:07.598Z,6.80
2018-04-01T19:29:35.765Z,6.80
2018-04-01T19:32:04.967Z,6.80
2018-04-01T19:34:34.197Z,6.90
2018-04-01T19:37:02.343Z,6.90
2018-04-01T19:39:30.722Z,6.90
2018-04-01T19:41:58.866Z,6.90
2018-04-01T19:44:27.006Z,6.90
2018-04-01T19:46:55.182Z,6.90
2018-04-01T19:49:23.347Z,6.90
2018-04-01T19:51:51.521Z,6.90
2018-04-01T19:54:19.662Z,6.90
2018-04-01T19:56:51.523Z,6.90
2018-04-01T19:59:20.436Z,6.90
2018-04-01T20:01:48.783Z,6.90
2018-04-01T20:04:16.887Z,6.90
2018-04-01T20:06:45.329Z,6.90
2018-04-01T20:09:14.937Z,6.90
2018-04-01T20:11:43.826Z,6.80
2018-04-01T20:14:12.738Z,6.80
2018-04-01T20:16:40.945Z,6.80
2018-04-01T20:19:09.091Z,6.90
2018-04-01T20:21:37.332Z,7.00
2018-04-01T20:24:06.211Z,6.90
2018-04-01T20:26:35.240Z,6.90
2018-04-01T20:29:04.337Z,6.80
2018-04-01T20:31:33.228Z,6.70
2018-04-01T20:34:01.465Z,6.70
2018-04-01T20:36:30.607Z,6.70
2018-04-01T20:38:59.272Z,6.70
2018-04-01T20:41:28.159Z,6.70
2018-04-01T20:43:57.072Z,6.70
2018-04-01T20:46:25.222Z,6.70
2018-04-01T20:48:53.370Z,6.70
2018-04-01T20:51:21.526Z,6.70
2018-04-01T20:53:50.882Z,6.70
2018-04-01T20:56:19.065Z,6.70
2018-04-01T20:58:47.260Z,6.60
2018-04-01T21:01:15.481Z,6.70
2018-04-01T21:03:43.619Z,6.60
2018-04-01T21:06:11.736Z,6.60
2018-04-01T21:08:40.744Z,6.40
2018-04-01T21:11:09.607Z,6.40
2018-04-01T21:13:37.757Z,6.40
2018-04-01T21:16:05.881Z,6.30
2018-04-01T21:18:34.018Z,6.20
2018-04-01T21:21:02.201Z,6.10
2018-04-01T21:23:30.386Z,6.00
2018-04-01T21:25:58.479Z,5.80
2018-04-01T21:28:26.591Z,5.70
2018-04-01T21:30:54.724Z,5.60
2018-04-01T21:33:22.861Z,5.40
2018-04-01T21:35:51.005Z,5.30
2018-04-01T21:38:19.251Z,5.20
2018-04-01T21:40:47.496Z,5.20
2018-04-01T21:43:16.587Z,5.20
2018-04-01T21:45:44.980Z,5.20
2018-04-01T21:48:13.981Z,5.00
2018-04-01T21:50:42.869Z,5.00
2018-04-01T21:53:11.767Z,5.00
2018-04-01T21:55:39.881Z,4.90
2018-04-01T21:58:08.120Z,5.00
2018-04-01T22:00:36.358Z,5.10
2018-04-01T22:03:04.465Z,5.30
2018-04-01T22:05:33.034Z,5.40
2018-04-01T22:08:01.967Z,5.20
2018-04-01T22:10:30.299Z,5.20
2018-04-01T22:12:58.622Z,5.10
2018-04-01T22:15:26.829Z,5.00
2018-04-01T22:17:55.889Z,4.90
2018-04-01T22:20:24.868Z,4.80
2018-04-01T22:23:04.845Z,4.70
2018-04-01T22:25:33.028Z,4.60
2018-04-01T22:28:01.218Z,4.50
2018-04-01T22:30:29.354Z,4.40
2018-04-01T22:32:57.528Z,4.30
2018-04-01T22:35:25.648Z,4.30
2018-04-01T22:37:54.600Z,4.30
2018-04-01T22:40:22.714Z,4.30
2018-04-01T22:42:52.345Z,4.40
2018-04-01T22:45:21.237Z,4.40
2018-04-01T22:47:50.595Z,4.30
2018-04-01T22:50:18.717Z,4.30
2018-04-01T22:52:46.836Z,4.30
2018-04-01T22:55:14.968Z,4.20
2018-04-01T22:57:43.798Z,4.10
2018-04-01T23:00:11.925Z,4.10
2018-04-01T23:02:40.189Z,4.00
2018-04-01T23:05:08.318Z,4.00
2018-04-01T23:07:36.430Z,3.90
2018-04-01T23:10:05.431Z,3.90
2018-04-01T23:12:33.664Z,3.90
2018-04-01T23:15:02.518Z,3.90
2018-04-01T23:17:30.659Z,3.90
2018-04-01T23:19:59.666Z,3.80
2018-04-01T23:22:27.810Z,3.80
2018-04-01T23:24:56.700Z,3.80
2018-04-01T23:27:24.836Z,3.70
2018-04-01T23:29:52.957Z,3.70
2018-04-01T23:32:21.865Z,3.70
2018-04-01T23:34:50.187Z,3.70
2018-04-01T23:37:18.363Z,3.70
2018-04-01T23:39:46.510Z,3.70
2018-04-01T23:42:14.668Z,3.60
2018-04-01T23:44:42.796Z,3.60
2018-04-01T23:47:10.959Z,3.60
2018-04-01T23:49:39.085Z,3.70
2018-04-01T23:52:07.221Z,3.70
2018-04-01T23:54:36.866Z,3.70
2018-04-01T23:57:05.111Z,3.70
2018-04-01T23:59:33.996Z,3.90
